Bob Baker Memorial Airport

About
Name: Bob Baker Memorial Airport
Identifier:  IAN/PAIK
Owner:  State of Alaska DOT&PF - Northern Region
Public/Private:  Public
Local Time:  17. Aug 21:07 AKDT
Description: Bob Baker Memorial Airport is a public airport located one mile north of the central business district of Kiana, a city in the Northwest Arctic Borough of the U.S. state of Alaska. The airport is owned by the state.
Source: Wikipedia
Location
Runways
Identifier Length (m/ft) Surface
6/24 3,400/3,400 Gravel
Flights per Day
5 flights
Distance: 68km (42mi)
Punctuality
86% (0 flights per day delayed)
Delay Average: 47 minutes
Current Weather
 16 C (Humidity: 48%)
  4kt (7km/h / 4mph) from 210°
  14km (9 mi.)
 
 METAR PAIK 180356Z AUTO 21004KT 9SM CLR 16/05 A3062 RMK AO2 SLP372 T01560050 TSNO

Current Flights

Departures
Number Departure To Airline
Arrivals
Number Arrival From Airline

Current Delays

Departures
N/A
Arrivals
N/A

Destinations

Top Destinations
Airport Flights
per week
Seats
per week
  Kotzebue (OTZ) 5 - 0 0
  Noorvik (ORV) 0 - 0 0
  Selawik (WLK) 0 - 0 0
  Anchorage (ANC) 0 - 0 0

Airlines & Planes

Top Airlines
Airline Flights
per Day
Seats
per Day
Bering Air 0 -
SkyBus International Airlines 0 -
Ryan Air 0 -
Top Plane Types
Model Flights Seats
Piper PA-31-350 0.4/day - 0
Beech B200 Super King Air 0.3/day - 0
Cessna C208 0.2/day - 0
Construcciones C-212-CC 0.0/day - 0
Pilatus PC-12 0.0/day - 0